This is the latest recevied weather packets stored in our database for station/object N3NDE. If no packets are shown the sender has not sent any weather packets the latest 1 day(s).
| Time | Temp. | Humidity | Pressure | Rain* | Wind** | Luminosity | Snow |
|---|---|---|---|---|---|---|---|
| 1778038151 | 5.56° C | 89% | 1013.1 hPa | 0 mm | - | 0 W/m² | - |
| 1778037848 | 5° C | 90% | 1013 hPa | 0 mm | - | 0 W/m² | - |
| 1778037545 | 5° C | 89% | 1012.8 hPa | 0 mm | - | 0 W/m² | - |
| 1778036940 | 5.56° C | 87% | 1012.2 hPa | 0 mm | - | 0 W/m² | - |
| 1778036638 | 6.11° C | 86% | 1012.3 hPa | 0 mm | - | 0 W/m² | - |
| 1778036334 | 6.11° C | 87% | 1012.3 hPa | 0 mm | - | 0 W/m² | - |
| 1778036031 | 6.11° C | 86% | 1012.2 hPa | 0 mm | - | 0 W/m² | - |
| 1778035728 | 6.11° C | 86% | 1011.9 hPa | 0 mm | - | 0 W/m² | - |
| 1778035425 | 6.67° C | 86% | 1012.1 hPa | 0 mm | - | 0 W/m² | - |
| 1778035121 | 6.67° C | 85% | 1012.2 hPa | 0 mm | - | 1 W/m² | - |
| 1778034818 | 6.67° C | 84% | 1012.1 hPa | 0 mm | - | 1 W/m² | - |
| 1778034212 | 7.22° C | 80% | 1011.8 hPa | 0 mm | - | 5 W/m² | - |
| 1778033607 | 8.33° C | 78% | 1011.7 hPa | 0 mm | - | 10 W/m² | - |
| 1778032699 | 10.56° C | 70% | 1011.8 hPa | 0 mm | - | 27 W/m² | - |
| 1778032396 | 10.56° C | 68% | 1011.3 hPa | 0 mm | - | 33 W/m² | - |
| 1778031486 | 10.56° C | 66% | 1011.8 hPa | 0 mm | - | 51 W/m² | - |
| 1778031184 | 10.56° C | 68% | 1011.8 hPa | 0 mm | - | 62 W/m² | - |
| 1778030880 | 10° C | 71% | 1011.6 hPa | 0 mm | - | 68 W/m² | - |
| 1778030577 | 10° C | 70% | 1011.7 hPa | 0 mm | - | 79 W/m² | - |
| 1778030275 | 10° C | 70% | 1011.7 hPa | 0 mm | - | 83 W/m² | - |
| 1778029669 | 8.89° C | 76% | 1011.7 hPa | 0 mm | - | 145 W/m² | - |
| 1778029366 | 9.44° C | 72% | 1011.8 hPa | 0 mm | - | 52 W/m² | - |
| 1778029063 | 10.56° C | 68% | 1011.8 hPa | 0 mm | - | 96 W/m² | - |
| 1778028760 | 11.11° C | 67% | 1011.9 hPa | 0 mm | - | 188 W/m² | - |
| 1778027849 | 11.11° C | 64% | 1012.1 hPa | 0 mm | - | 254 W/m² | - |
* Rain latest hour (hover to see other rain measurements)
** Current wind speed in m/s (hover to see current wind gust speed)